02:04 Rennrad Tschirgantrunde mittel
Ort Moetz Datum 14.08.2017 15:18:50
Kategorie Rennrad
Distanz 66,61 Kilometer Steigung 693,0 Meter Gefälle -698,0 Meter
Gesamt Zeit 02:04:26 Aktiv 02:04:26 Pause 00:00:00
Durchs. Tempo 32,1 km/h Tempo max. 64,8 km/h Tempo min. 15,9 km/h
Kalorien 0 Durchs. HF 133 BPM HF max. 162 BPM
Wetter 27 °C PartClouds Min/Max: 25,7 °C/28,6 °C; Druck: 1017,1 mbar; Rel. Feuchte: 49,4%; Taupunkt: 16,3 °C; Windgeschwindigkeit: 1,8 km/h; Niederschlag: 0,0mm
Ausrüstung Bontrager - RL Road
Scott - Addict 20
Notiz Moetz - Imst - Nassereith - Holzleitensattel - Barwies - Telfs - Moetz ... trocken, feines Radlwetter, mittlerer bis starker Wind in Richtung Imst - locker bis flott … Auffahrt Holzleiten 21:20, Trittfr. 80, Puls 146, Watt 246 ... garmin connect
Splits
Distanz (km) Gesamt Zeit Split Zeit Split Tempo Split Tempo Höhenprofil (m)
1,00 00:02:05 00:02:05 00:02:06 28,6 -10,01
2,00 00:03:58 00:01:52 00:01:53 31,9 2,08
3,00 00:05:38 00:01:39 00:01:40 36,1 7,84
4,00 00:07:24 00:01:46 00:01:46 33,9 9,27
5,00 00:09:24 00:02:00 00:02:00 30,0 5,59
6,00 00:11:11 00:01:47 00:01:47 33,6 5,85
7,00 00:12:54 00:01:42 00:01:43 35,0 1,18
8,00 00:14:36 00:01:42 00:01:42 35,2 7,16
9,00 00:16:24 00:01:48 00:01:48 33,3 3,42
10,00 00:18:24 00:01:59 00:01:59 30,2 16,83
11,00 00:21:11 00:02:46 00:02:47 21,6 26,17
12,00 00:22:41 00:01:30 00:01:31 39,6 1,57
13,00 00:24:25 00:01:43 00:01:43 34,9 -0,91
14,00 00:25:48 00:01:23 00:01:24 42,9 -14,74
15,00 00:28:24 00:02:35 00:02:36 23,1 46,34
16,00 00:31:43 00:03:18 00:03:19 18,1 52,11
17,00 00:34:09 00:02:25 00:02:26 24,7 2,52
18,00 00:35:19 00:01:09 00:01:10 51,5 -32,30
19,00 00:36:30 00:01:11 00:01:12 50,3 -17,54
20,00 00:37:43 00:01:12 00:01:12 49,9 -33,88
21,00 00:40:26 00:02:43 00:02:44 22,0 33,15
22,00 00:42:54 00:02:27 00:02:28 24,3 24,80
23,00 00:45:38 00:02:43 00:02:44 22,0 47,90
24,00 00:47:26 00:01:48 00:01:48 33,3 -1,56
25,00 00:49:00 00:01:33 00:01:33 38,5 -18,72
26,00 00:50:38 00:01:38 00:01:39 36,5 -15,01
27,00 00:52:54 00:02:15 00:02:15 26,6 17,56
28,00 00:54:53 00:01:59 00:01:59 30,1 3,64
29,00 00:56:40 00:01:47 00:01:47 33,5 -2,09
30,00 00:58:42 00:02:02 00:02:02 29,5 1,61
31,00 01:00:32 00:01:49 00:01:50 32,8 2,26
32,00 01:02:38 00:02:05 00:02:06 28,7 9,01
33,00 01:04:22 00:01:44 00:01:44 34,5 -12,25
34,00 01:05:46 00:01:23 00:01:24 42,9 -9,05
35,00 01:08:33 00:02:46 00:02:46 21,6 43,62
36,00 01:12:02 00:03:28 00:03:29 17,2 58,67
37,00 01:15:26 00:03:24 00:03:24 17,6 48,71
38,00 01:18:52 00:03:26 00:03:26 17,4 56,61
39,00 01:21:58 00:03:05 00:03:06 19,4 39,27
40,00 01:24:44 00:02:46 00:02:46 21,6 29,13
41,00 01:27:18 00:02:33 00:02:34 23,4 28,67
42,00 01:28:25 00:01:06 00:01:07 54,0 -57,78
43,00 01:29:27 00:01:01 00:01:02 58,2 -48,90
44,00 01:30:46 00:01:19 00:01:20 45,1 -25,60
45,00 01:31:58 00:01:11 00:01:12 50,1 -47,12
46,00 01:33:05 00:01:06 00:01:06 54,3 -41,94
47,00 01:34:40 00:01:35 00:01:35 37,7 -17,39
48,00 01:36:27 00:01:46 00:01:47 33,7 -5,14
49,00 01:38:04 00:01:36 00:01:37 37,1 -5,72
50,00 01:39:35 00:01:31 00:01:31 39,5 -15,81
51,00 01:40:46 00:01:10 00:01:11 50,9 -40,44
52,00 01:41:56 00:01:10 00:01:10 51,4 -33,64
53,00 01:43:09 00:01:13 00:01:13 49,3 -30,85
54,00 01:44:22 00:01:13 00:01:14 48,9 -43,00
55,00 01:45:28 00:01:05 00:01:06 54,9 -53,47
56,00 01:47:23 00:01:54 00:01:55 31,4 -23,31
57,00 01:49:13 00:01:50 00:01:50 32,6 -0,60
58,00 01:50:44 00:01:30 00:01:31 39,6 1,96
59,00 01:52:12 00:01:28 00:01:28 40,8 2,91
60,00 01:53:47 00:01:35 00:01:35 37,7 6,39
61,00 01:55:13 00:01:26 00:01:26 41,9 1,60
62,00 01:56:48 00:01:34 00:01:35 37,9 -1,90
63,00 01:58:21 00:01:33 00:01:33 38,7 1,57
64,00 01:59:56 00:01:34 00:01:34 38,1 3,97
65,00 02:01:27 00:01:31 00:01:32 39,3 0,04
66,00 02:03:06 00:01:38 00:01:39 36,5 0,06
66,70 02:04:26 00:01:19 00:01:53 31,9 9,66